Observations for BOLZANO CIV IT-AFB, Italy (LIPB)

LIPB 260450Z 00000KT 9999 FEW100 16/14 Q1021
LIPB 260450Z 00000KT 9999 FEW100 16/14 Q1021 RMK MON LIB
LIPB 252050Z 00000KT 9999 FEW120 21/17 Q1021
LIPB 252050Z 00000KT 9999 FEW120 21/17 Q1021 RMK MON INVIS
LIPB 251950Z VRB03KT 9999 SCT130 21/17 Q1020
LIPB 251950Z VRB03KT 9999 SCT130 21/17 Q1020 RMK MON INVIS
LIPB 251850Z VRB02KT 9999 BKN120 21/17 Q1020
LIPB 251850Z VRB02KT 9999 BKN120 21/17 Q1020 RMK MON INVIS
LIPB 251750Z VRB03KT 9999 SCT100 SCT120 23/16 Q1019 
LIPB 251750Z VRB03KT 9999 SCT100 SCT120 23/16 Q1019 RMK MON LIB
LIPB 251650Z 24004KT 200V280 9999 FEW050 SCT070 BKN100 24/17 Q1019  
LIPB 251650Z 24004KT 200V280 9999 FEW050 SCT070 BKN100 24/17 Q1019 RMK MON LIB
LIPB 251550Z 12006KT 080V160 9999 FEW050 BKN130 24/17 Q1018 RETS
LIPB 251550Z 12006KT 080V160 9999 FEW050 BKN130 24/17 Q1018 RETS RMK MON LIB
LIPB 251450Z 05011G22KT 9999 -TSRA SCT050CB BKN060 27/13 Q1017  
LIPB 251450Z 05011G22KT 9999 -TSRA SCT050CB BKN060 27/13 Q1017 RMK MON LIB
LIPB 251350Z 18004KT 090V230 9999 TS VCSH SCT050CB 30/17 Q1017  
LIPB 251350Z 18004KT 090V230 9999 TS VCSH SCT050CB 30/17 Q1017 RMK MON LIB
LIPB 251330Z VRB04KT 9999 TS SCT050CB 30/17 Q1017
LIPB 251250Z 17003KT 9999 FEW050CB 30/17 Q1017  
LIPB 251250Z 17003KT 9999 FEW050CB 30/17 Q1017 RMK MON LIB
LIPB 251150Z 19003KT 9999 SCT050TCU 29/17 Q1018 
LIPB 251150Z 19003KT 9999 SCT050TCU 29/17 Q1018 RMK MON LIB
LIPB 251050Z 16002KT 9999 FEW060 28/16 Q1018
LIPB 251050Z 16002KT 9999 FEW060 28/16 Q1018 RMK MON LIB
LIPB 250950Z 00000KT 9999 FEW050 SCT130 25/16 Q1020 
LIPB 250950Z 00000KT 9999 FEW050 SCT130 25/16 Q1020 RMK MON LIB
LIPB 250850Z 00000KT 9999 FEW050 SCT130 24/16 Q1020 
LIPB 250850Z 00000KT 9999 FEW050 SCT130 24/16 Q1020 RMK MON LIB
LIPB 250750Z 00000KT 9999 BKN140 22/16 Q1020
LIPB 250750Z 00000KT 9999 BKN140 22/16 Q1020 RMK MON LIB
LIPB 250650Z 00000KT 9999 SCT135 20/16 Q1020
LIPB 250650Z 00000KT 9999 SCT135 20/16 Q1020 RMK MON LIB
LIPB 250550Z 00000KT 9999 SCT120 18/16 Q1020
LIPB 250550Z 00000KT 9999 SCT120 18/16 Q1020 RMK MON LIB
LIPB 250450Z 00000KT CAVOK 17/16 Q1020  
LIPB 250450Z 00000KT CAVOK 17/16 Q1020 RMK MON LIB